sensor_id;sensor_type;location;lat;lon;timestamp;P1;durP1;ratioP1;P2;durP2;ratioP2
8652;SDS011;4364;52.426;9.424;2023-09-08T00:02:25;10.27;;;8.03;;
8652;SDS011;4364;52.426;9.424;2023-09-08T00:04:52;9.83;;;7.10;;
8652;SDS011;4364;52.426;9.424;2023-09-08T00:07:19;10.97;;;7.27;;
8652;SDS011;4364;52.426;9.424;2023-09-08T00:09:46;9.83;;;7.60;;
8652;SDS011;4364;52.426;9.424;2023-09-08T00:12:13;10.07;;;7.03;;
8652;SDS011;4364;52.426;9.424;2023-09-08T00:14:40;10.30;;;7.17;;
8652;SDS011;4364;52.426;9.424;2023-09-08T00:17:06;8.90;;;7.10;;
8652;SDS011;4364;52.426;9.424;2023-09-08T00:19:33;11.70;;;7.20;;
8652;SDS011;4364;52.426;9.424;2023-09-08T00:22:00;10.13;;;7.03;;
8652;SDS011;4364;52.426;9.424;2023-09-08T00:24:27;10.30;;;7.60;;
8652;SDS011;4364;52.426;9.424;2023-09-08T00:26:53;8.97;;;7.40;;
8652;SDS011;4364;52.426;9.424;2023-09-08T00:29:20;8.80;;;7.47;;
8652;SDS011;4364;52.426;9.424;2023-09-08T00:31:46;10.40;;;7.40;;
8652;SDS011;4364;52.426;9.424;2023-09-08T00:34:13;8.17;;;7.30;;
8652;SDS011;4364;52.426;9.424;2023-09-08T00:36:40;9.37;;;7.60;;
8652;SDS011;4364;52.426;9.424;2023-09-08T00:39:06;10.83;;;7.67;;
8652;SDS011;4364;52.426;9.424;2023-09-08T00:41:33;8.83;;;7.30;;
8652;SDS011;4364;52.426;9.424;2023-09-08T00:44:00;12.20;;;7.97;;
8652;SDS011;4364;52.426;9.424;2023-09-08T00:46:26;10.70;;;7.93;;
8652;SDS011;4364;52.426;9.424;2023-09-08T00:48:54;7.90;;;7.07;;
8652;SDS011;4364;52.426;9.424;2023-09-08T00:51:23;8.70;;;7.30;;
8652;SDS011;4364;52.426;9.424;2023-09-08T00:53:50;8.73;;;7.20;;
8652;SDS011;4364;52.426;9.424;2023-09-08T00:56:16;8.97;;;7.50;;
8652;SDS011;4364;52.426;9.424;2023-09-08T00:58:44;9.97;;;8.03;;
8652;SDS011;4364;52.426;9.424;2023-09-08T01:01:10;10.47;;;7.63;;
8652;SDS011;4364;52.426;9.424;2023-09-08T01:03:37;10.20;;;8.50;;
8652;SDS011;4364;52.426;9.424;2023-09-08T01:06:03;10.13;;;7.80;;
8652;SDS011;4364;52.426;9.424;2023-09-08T01:08:31;10.00;;;8.50;;
8652;SDS011;4364;52.426;9.424;2023-09-08T01:10:58;10.57;;;8.33;;
8652;SDS011;4364;52.426;9.424;2023-09-08T01:13:25;10.20;;;8.03;;
8652;SDS011;4364;52.426;9.424;2023-09-08T01:15:51;9.60;;;8.60;;
8652;SDS011;4364;52.426;9.424;2023-09-08T01:18:19;9.17;;;7.67;;
8652;SDS011;4364;52.426;9.424;2023-09-08T01:26:17;9.57;;;7.50;;
8652;SDS011;4364;52.426;9.424;2023-09-08T01:28:48;11.97;;;8.40;;
8652;SDS011;4364;52.426;9.424;2023-09-08T01:31:16;10.60;;;8.33;;
8652;SDS011;4364;52.426;9.424;2023-09-08T01:33:44;11.37;;;8.00;;
8652;SDS011;4364;52.426;9.424;2023-09-08T01:36:12;11.37;;;8.47;;
8652;SDS011;4364;52.426;9.424;2023-09-08T01:38:40;11.60;;;9.03;;
8652;SDS011;4364;52.426;9.424;2023-09-08T01:41:07;9.10;;;8.03;;
8652;SDS011;4364;52.426;9.424;2023-09-08T01:43:34;12.00;;;8.67;;
8652;SDS011;4364;52.426;9.424;2023-09-08T01:46:00;8.90;;;8.00;;
8652;SDS011;4364;52.426;9.424;2023-09-08T01:48:27;10.57;;;8.07;;
8652;SDS011;4364;52.426;9.424;2023-09-08T01:50:53;9.63;;;7.80;;
8652;SDS011;4364;52.426;9.424;2023-09-08T01:53:20;10.67;;;8.40;;
8652;SDS011;4364;52.426;9.424;2023-09-08T01:55:47;9.47;;;7.60;;
8652;SDS011;4364;52.426;9.424;2023-09-08T01:58:14;9.20;;;7.73;;
8652;SDS011;4364;52.426;9.424;2023-09-08T02:00:41;10.87;;;8.67;;
8652;SDS011;4364;52.426;9.424;2023-09-08T02:03:07;11.77;;;8.13;;
8652;SDS011;4364;52.426;9.424;2023-09-08T02:05:34;14.13;;;8.37;;
8652;SDS011;4364;52.426;9.424;2023-09-08T02:08:05;9.10;;;8.07;;
8652;SDS011;4364;52.426;9.424;2023-09-08T02:10:32;11.73;;;8.33;;
8652;SDS011;4364;52.426;9.424;2023-09-08T02:12:58;9.80;;;7.83;;
8652;SDS011;4364;52.426;9.424;2023-09-08T02:15:25;10.50;;;8.07;;
8652;SDS011;4364;52.426;9.424;2023-09-08T02:17:55;8.90;;;7.97;;
8652;SDS011;4364;52.426;9.424;2023-09-08T02:20:22;9.37;;;7.60;;
8652;SDS011;4364;52.426;9.424;2023-09-08T02:22:53;10.07;;;8.20;;
8652;SDS011;4364;52.426;9.424;2023-09-08T02:25:20;10.10;;;8.33;;
8652;SDS011;4364;52.426;9.424;2023-09-08T02:27:49;9.27;;;8.17;;
8652;SDS011;4364;52.426;9.424;2023-09-08T02:30:16;10.67;;;8.87;;
8652;SDS011;4364;52.426;9.424;2023-09-08T02:32:43;9.53;;;8.50;;
8652;SDS011;4364;52.426;9.424;2023-09-08T02:35:12;10.40;;;8.57;;
8652;SDS011;4364;52.426;9.424;2023-09-08T02:37:38;11.43;;;8.20;;
8652;SDS011;4364;52.426;9.424;2023-09-08T02:40:06;9.73;;;8.07;;
8652;SDS011;4364;52.426;9.424;2023-09-08T02:42:35;10.33;;;8.00;;
8652;SDS011;4364;52.426;9.424;2023-09-08T02:45:01;10.63;;;7.93;;
8652;SDS011;4364;52.426;9.424;2023-09-08T02:47:28;9.70;;;8.13;;
8652;SDS011;4364;52.426;9.424;2023-09-08T02:49:57;12.47;;;8.87;;
8652;SDS011;4364;52.426;9.424;2023-09-08T02:52:23;9.73;;;8.00;;
8652;SDS011;4364;52.426;9.424;2023-09-08T02:54:50;12.87;;;8.73;;
8652;SDS011;4364;52.426;9.424;2023-09-08T02:57:17;12.83;;;8.90;;
8652;SDS011;4364;52.426;9.424;2023-09-08T02:59:48;9.77;;;8.57;;
8652;SDS011;4364;52.426;9.424;2023-09-08T03:02:15;11.37;;;9.17;;
8652;SDS011;4364;52.426;9.424;2023-09-08T03:04:42;11.90;;;8.37;;
8652;SDS011;4364;52.426;9.424;2023-09-08T03:07:10;11.20;;;8.40;;
8652;SDS011;4364;52.426;9.424;2023-09-08T03:09:36;9.83;;;8.17;;
8652;SDS011;4364;52.426;9.424;2023-09-08T03:12:03;10.83;;;8.37;;
8652;SDS011;4364;52.426;9.424;2023-09-08T03:14:30;11.93;;;8.53;;
8652;SDS011;4364;52.426;9.424;2023-09-08T03:16:56;12.27;;;8.80;;
8652;SDS011;4364;52.426;9.424;2023-09-08T03:19:24;11.50;;;8.70;;
8652;SDS011;4364;52.426;9.424;2023-09-08T03:21:50;13.60;;;9.17;;
8652;SDS011;4364;52.426;9.424;2023-09-08T03:24:17;11.90;;;8.90;;
8652;SDS011;4364;52.426;9.424;2023-09-08T03:26:44;11.93;;;9.33;;
8652;SDS011;4364;52.426;9.424;2023-09-08T03:29:11;13.57;;;10.40;;
8652;SDS011;4364;52.426;9.424;2023-09-08T03:31:37;13.73;;;10.13;;
8652;SDS011;4364;52.426;9.424;2023-09-08T03:34:04;12.80;;;10.47;;
8652;SDS011;4364;52.426;9.424;2023-09-08T03:36:31;13.97;;;10.40;;
8652;SDS011;4364;52.426;9.424;2023-09-08T03:39:02;11.67;;;9.67;;
8652;SDS011;4364;52.426;9.424;2023-09-08T03:41:29;11.27;;;9.43;;
8652;SDS011;4364;52.426;9.424;2023-09-08T03:43:56;14.23;;;10.17;;
8652;SDS011;4364;52.426;9.424;2023-09-08T03:46:23;12.40;;;9.67;;
8652;SDS011;4364;52.426;9.424;2023-09-08T03:48:51;13.87;;;10.20;;
8652;SDS011;4364;52.426;9.424;2023-09-08T03:51:20;11.30;;;10.13;;
8652;SDS011;4364;52.426;9.424;2023-09-08T03:53:47;14.17;;;9.77;;
8652;SDS011;4364;52.426;9.424;2023-09-08T03:56:13;10.70;;;9.47;;
8652;SDS011;4364;52.426;9.424;2023-09-08T03:58:40;11.57;;;10.07;;
8652;SDS011;4364;52.426;9.424;2023-09-08T04:01:07;12.20;;;9.50;;
8652;SDS011;4364;52.426;9.424;2023-09-08T04:03:33;13.60;;;10.40;;
8652;SDS011;4364;52.426;9.424;2023-09-08T04:06:01;12.90;;;9.53;;
8652;SDS011;4364;52.426;9.424;2023-09-08T04:08:28;12.43;;;8.87;;
8652;SDS011;4364;52.426;9.424;2023-09-08T04:10:54;11.37;;;9.43;;
8652;SDS011;4364;52.426;9.424;2023-09-08T04:13:21;10.93;;;9.00;;
8652;SDS011;4364;52.426;9.424;2023-09-08T04:15:48;10.73;;;9.50;;
8652;SDS011;4364;52.426;9.424;2023-09-08T04:18:14;12.77;;;9.87;;
8652;SDS011;4364;52.426;9.424;2023-09-08T04:20:41;11.97;;;9.13;;
8652;SDS011;4364;52.426;9.424;2023-09-08T04:23:08;11.33;;;9.50;;
8652;SDS011;4364;52.426;9.424;2023-09-08T04:25:35;12.97;;;9.60;;
8652;SDS011;4364;52.426;9.424;2023-09-08T04:28:03;12.77;;;9.80;;
8652;SDS011;4364;52.426;9.424;2023-09-08T04:30:30;11.20;;;10.07;;
8652;SDS011;4364;52.426;9.424;2023-09-08T04:32:57;11.07;;;9.43;;
8652;SDS011;4364;52.426;9.424;2023-09-08T04:35:24;11.00;;;9.53;;
8652;SDS011;4364;52.426;9.424;2023-09-08T04:37:51;11.13;;;9.27;;
8652;SDS011;4364;52.426;9.424;2023-09-08T04:40:17;12.00;;;9.47;;
8652;SDS011;4364;52.426;9.424;2023-09-08T04:42:44;13.10;;;11.33;;
8652;SDS011;4364;52.426;9.424;2023-09-08T04:45:11;16.40;;;13.20;;
8652;SDS011;4364;52.426;9.424;2023-09-08T04:47:37;13.43;;;11.87;;
8652;SDS011;4364;52.426;9.424;2023-09-08T04:50:04;15.67;;;11.47;;
8652;SDS011;4364;52.426;9.424;2023-09-08T04:52:31;13.53;;;10.57;;
8652;SDS011;4364;52.426;9.424;2023-09-08T04:55:00;12.73;;;10.30;;
8652;SDS011;4364;52.426;9.424;2023-09-08T04:57:27;12.93;;;10.17;;
8652;SDS011;4364;52.426;9.424;2023-09-08T04:59:57;12.40;;;10.17;;
8652;SDS011;4364;52.426;9.424;2023-09-08T05:02:24;12.57;;;9.50;;
8652;SDS011;4364;52.426;9.424;2023-09-08T05:04:51;12.83;;;9.53;;
8652;SDS011;4364;52.426;9.424;2023-09-08T05:07:17;13.73;;;10.03;;
8652;SDS011;4364;52.426;9.424;2023-09-08T05:09:46;12.67;;;9.83;;
8652;SDS011;4364;52.426;9.424;2023-09-08T05:12:13;12.40;;;9.60;;
8652;SDS011;4364;52.426;9.424;2023-09-08T05:14:40;16.17;;;10.70;;
8652;SDS011;4364;52.426;9.424;2023-09-08T05:17:07;13.30;;;9.20;;
8652;SDS011;4364;52.426;9.424;2023-09-08T05:19:33;13.57;;;9.50;;
8652;SDS011;4364;52.426;9.424;2023-09-08T05:22:02;12.87;;;9.07;;
8652;SDS011;4364;52.426;9.424;2023-09-08T05:24:31;14.53;;;10.13;;
8652;SDS011;4364;52.426;9.424;2023-09-08T05:26:57;12.73;;;9.73;;
8652;SDS011;4364;52.426;9.424;2023-09-08T05:29:25;14.83;;;10.20;;
8652;SDS011;4364;52.426;9.424;2023-09-08T05:31:55;15.60;;;10.00;;
8652;SDS011;4364;52.426;9.424;2023-09-08T05:34:22;14.27;;;10.40;;
8652;SDS011;4364;52.426;9.424;2023-09-08T05:36:49;12.07;;;9.63;;
8652;SDS011;4364;52.426;9.424;2023-09-08T05:39:16;17.20;;;11.23;;
8652;SDS011;4364;52.426;9.424;2023-09-08T05:41:45;15.13;;;10.60;;
8652;SDS011;4364;52.426;9.424;2023-09-08T05:44:12;13.50;;;10.73;;
8652;SDS011;4364;52.426;9.424;2023-09-08T05:46:38;14.27;;;10.63;;
8652;SDS011;4364;52.426;9.424;2023-09-08T05:49:05;14.37;;;10.40;;
8652;SDS011;4364;52.426;9.424;2023-09-08T05:51:33;11.40;;;9.77;;
8652;SDS011;4364;52.426;9.424;2023-09-08T05:54:00;12.80;;;9.60;;
8652;SDS011;4364;52.426;9.424;2023-09-08T05:56:30;17.30;;;10.47;;
8652;SDS011;4364;52.426;9.424;2023-09-08T05:58:58;15.33;;;9.70;;
8652;SDS011;4364;52.426;9.424;2023-09-08T06:01:24;15.40;;;10.10;;
8652;SDS011;4364;52.426;9.424;2023-09-08T06:03:51;19.67;;;11.20;;
8652;SDS011;4364;52.426;9.424;2023-09-08T06:06:18;16.10;;;11.23;;
8652;SDS011;4364;52.426;9.424;2023-09-08T06:08:45;14.17;;;10.07;;
8652;SDS011;4364;52.426;9.424;2023-09-08T06:11:12;17.63;;;10.67;;
8652;SDS011;4364;52.426;9.424;2023-09-08T06:13:39;16.80;;;10.03;;
8652;SDS011;4364;52.426;9.424;2023-09-08T06:16:06;15.07;;;10.40;;
8652;SDS011;4364;52.426;9.424;2023-09-08T06:18:32;16.37;;;10.47;;
8652;SDS011;4364;52.426;9.424;2023-09-08T06:21:09;14.97;;;9.90;;
8652;SDS011;4364;52.426;9.424;2023-09-08T06:23:36;14.30;;;9.60;;
8652;SDS011;4364;52.426;9.424;2023-09-08T06:26:03;16.60;;;10.67;;
8652;SDS011;4364;52.426;9.424;2023-09-08T06:28:32;13.30;;;9.60;;
8652;SDS011;4364;52.426;9.424;2023-09-08T06:30:59;14.63;;;9.13;;
8652;SDS011;4364;52.426;9.424;2023-09-08T06:33:26;13.07;;;9.30;;
8652;SDS011;4364;52.426;9.424;2023-09-08T06:35:53;13.73;;;9.87;;
8652;SDS011;4364;52.426;9.424;2023-09-08T06:38:20;12.57;;;8.83;;
8652;SDS011;4364;52.426;9.424;2023-09-08T06:40:47;11.77;;;9.10;;
8652;SDS011;4364;52.426;9.424;2023-09-08T06:43:14;12.83;;;9.13;;
8652;SDS011;4364;52.426;9.424;2023-09-08T06:45:50;11.27;;;9.07;;
8652;SDS011;4364;52.426;9.424;2023-09-08T06:48:20;11.30;;;8.27;;
8652;SDS011;4364;52.426;9.424;2023-09-08T06:50:46;14.67;;;9.17;;
8652;SDS011;4364;52.426;9.424;2023-09-08T06:53:14;14.27;;;9.27;;
8652;SDS011;4364;52.426;9.424;2023-09-08T06:55:41;11.17;;;8.27;;
8652;SDS011;4364;52.426;9.424;2023-09-08T06:58:11;12.17;;;9.37;;
8652;SDS011;4364;52.426;9.424;2023-09-08T07:00:41;11.13;;;9.60;;
8652;SDS011;4364;52.426;9.424;2023-09-08T07:03:08;13.60;;;9.50;;
8652;SDS011;4364;52.426;9.424;2023-09-08T07:05:35;12.60;;;8.73;;
8652;SDS011;4364;52.426;9.424;2023-09-08T07:08:02;13.70;;;9.67;;
8652;SDS011;4364;52.426;9.424;2023-09-08T07:10:29;12.60;;;8.53;;
8652;SDS011;4364;52.426;9.424;2023-09-08T07:12:56;10.70;;;9.50;;
8652;SDS011;4364;52.426;9.424;2023-09-08T07:15:22;14.40;;;9.13;;
8652;SDS011;4364;52.426;9.424;2023-09-08T07:17:49;11.80;;;9.03;;
8652;SDS011;4364;52.426;9.424;2023-09-08T07:20:16;13.63;;;9.03;;
8652;SDS011;4364;52.426;9.424;2023-09-08T07:22:44;12.33;;;8.77;;
8652;SDS011;4364;52.426;9.424;2023-09-08T07:25:14;11.27;;;8.17;;
8652;SDS011;4364;52.426;9.424;2023-09-08T07:27:41;11.20;;;7.73;;
8652;SDS011;4364;52.426;9.424;2023-09-08T07:30:08;12.43;;;7.57;;
8652;SDS011;4364;52.426;9.424;2023-09-08T07:32:35;11.30;;;7.80;;
8652;SDS011;4364;52.426;9.424;2023-09-08T07:35:02;8.03;;;7.10;;
8652;SDS011;4364;52.426;9.424;2023-09-08T07:37:29;11.97;;;7.37;;
8652;SDS011;4364;52.426;9.424;2023-09-08T07:39:56;10.03;;;7.47;;
8652;SDS011;4364;52.426;9.424;2023-09-08T07:42:23;9.90;;;7.70;;
8652;SDS011;4364;52.426;9.424;2023-09-08T07:44:52;10.33;;;7.77;;
8652;SDS011;4364;52.426;9.424;2023-09-08T07:47:19;9.57;;;7.10;;
8652;SDS011;4364;52.426;9.424;2023-09-08T07:49:46;8.40;;;7.10;;
8652;SDS011;4364;52.426;9.424;2023-09-08T07:52:15;8.63;;;7.10;;
8652;SDS011;4364;52.426;9.424;2023-09-08T07:54:42;9.00;;;7.10;;
8652;SDS011;4364;52.426;9.424;2023-09-08T07:57:09;8.00;;;7.00;;
8652;SDS011;4364;52.426;9.424;2023-09-08T07:59:35;10.30;;;6.60;;
8652;SDS011;4364;52.426;9.424;2023-09-08T08:02:03;9.40;;;6.83;;
8652;SDS011;4364;52.426;9.424;2023-09-08T08:04:30;11.23;;;6.47;;
8652;SDS011;4364;52.426;9.424;2023-09-08T08:06:56;9.30;;;6.80;;
8652;SDS011;4364;52.426;9.424;2023-09-08T08:09:23;7.73;;;6.83;;
8652;SDS011;4364;52.426;9.424;2023-09-08T08:11:49;10.00;;;6.63;;
8652;SDS011;4364;52.426;9.424;2023-09-08T08:14:16;7.53;;;6.63;;
8652;SDS011;4364;52.426;9.424;2023-09-08T08:16:43;8.03;;;6.43;;
8652;SDS011;4364;52.426;9.424;2023-09-08T08:19:09;11.97;;;6.97;;
8652;SDS011;4364;52.426;9.424;2023-09-08T08:21:36;6.93;;;6.33;;
8652;SDS011;4364;52.426;9.424;2023-09-08T08:24:03;7.70;;;6.13;;
8652;SDS011;4364;52.426;9.424;2023-09-08T08:26:31;10.13;;;7.00;;
8652;SDS011;4364;52.426;9.424;2023-09-08T08:28:59;10.60;;;6.30;;
8652;SDS011;4364;52.426;9.424;2023-09-08T08:31:26;10.20;;;6.77;;
8652;SDS011;4364;52.426;9.424;2023-09-08T08:33:53;8.83;;;6.43;;
8652;SDS011;4364;52.426;9.424;2023-09-08T08:36:19;8.27;;;6.20;;
8652;SDS011;4364;52.426;9.424;2023-09-08T08:38:46;8.40;;;6.30;;
8652;SDS011;4364;52.426;9.424;2023-09-08T08:41:13;9.33;;;6.40;;
8652;SDS011;4364;52.426;9.424;2023-09-08T08:43:39;7.70;;;6.83;;
8652;SDS011;4364;52.426;9.424;2023-09-08T08:46:07;8.97;;;6.30;;
8652;SDS011;4364;52.426;9.424;2023-09-08T08:48:35;7.47;;;6.33;;
8652;SDS011;4364;52.426;9.424;2023-09-08T08:51:03;7.70;;;6.30;;
8652;SDS011;4364;52.426;9.424;2023-09-08T08:53:31;8.40;;;6.50;;
8652;SDS011;4364;52.426;9.424;2023-09-08T08:56:00;7.97;;;6.47;;
8652;SDS011;4364;52.426;9.424;2023-09-08T08:58:27;9.63;;;6.03;;
8652;SDS011;4364;52.426;9.424;2023-09-08T09:00:55;8.97;;;6.63;;
8652;SDS011;4364;52.426;9.424;2023-09-08T09:03:26;7.70;;;6.17;;
8652;SDS011;4364;52.426;9.424;2023-09-08T09:05:54;9.63;;;6.93;;
8652;SDS011;4364;52.426;9.424;2023-09-08T09:08:20;13.13;;;6.82;;
8652;SDS011;4364;52.426;9.424;2023-09-08T09:10:50;8.95;;;6.45;;
8652;SDS011;4364;52.426;9.424;2023-09-08T09:13:18;7.10;;;6.40;;
8652;SDS011;4364;52.426;9.424;2023-09-08T09:15:44;7.95;;;6.28;;
8652;SDS011;4364;52.426;9.424;2023-09-08T09:18:12;8.68;;;6.32;;
8652;SDS011;4364;52.426;9.424;2023-09-08T09:20:40;9.07;;;6.72;;
8652;SDS011;4364;52.426;9.424;2023-09-08T09:23:07;10.05;;;6.88;;
8652;SDS011;4364;52.426;9.424;2023-09-08T09:25:34;8.05;;;6.82;;
8652;SDS011;4364;52.426;9.424;2023-09-08T09:28:02;8.07;;;6.20;;
8652;SDS011;4364;52.426;9.424;2023-09-08T09:30:45;8.10;;;6.47;;
8652;SDS011;4364;52.426;9.424;2023-09-08T09:33:17;9.27;;;6.30;;
8652;SDS011;4364;52.426;9.424;2023-09-08T09:35:46;8.00;;;6.78;;
8652;SDS011;4364;52.426;9.424;2023-09-08T09:38:18;8.80;;;6.55;;
8652;SDS011;4364;52.426;9.424;2023-09-08T09:40:47;9.60;;;6.90;;
8652;SDS011;4364;52.426;9.424;2023-09-08T09:43:15;9.70;;;6.50;;
8652;SDS011;4364;52.426;9.424;2023-09-08T09:45:43;8.30;;;6.63;;
8652;SDS011;4364;52.426;9.424;2023-09-08T09:48:10;7.85;;;6.70;;
8652;SDS011;4364;52.426;9.424;2023-09-08T09:50:39;7.60;;;6.40;;
8652;SDS011;4364;52.426;9.424;2023-09-08T09:53:08;11.18;;;6.78;;
8652;SDS011;4364;52.426;9.424;2023-09-08T09:55:38;8.48;;;6.20;;
8652;SDS011;4364;52.426;9.424;2023-09-08T09:58:05;6.63;;;5.70;;
8652;SDS011;4364;52.426;9.424;2023-09-08T10:00:33;9.57;;;6.55;;
8652;SDS011;4364;52.426;9.424;2023-09-08T10:03:06;10.77;;;6.57;;
8652;SDS011;4364;52.426;9.424;2023-09-08T10:05:33;9.50;;;6.10;;
8652;SDS011;4364;52.426;9.424;2023-09-08T10:08:00;7.28;;;6.45;;
8652;SDS011;4364;52.426;9.424;2023-09-08T10:10:27;8.38;;;5.75;;
8652;SDS011;4364;52.426;9.424;2023-09-08T10:12:57;10.75;;;6.10;;
8652;SDS011;4364;52.426;9.424;2023-09-08T10:15:28;7.10;;;6.40;;
8652;SDS011;4364;52.426;9.424;2023-09-08T10:17:57;7.75;;;6.38;;
8652;SDS011;4364;52.426;9.424;2023-09-08T10:20:27;8.48;;;5.97;;
8652;SDS011;4364;52.426;9.424;2023-09-08T10:22:56;6.78;;;5.78;;
8652;SDS011;4364;52.426;9.424;2023-09-08T10:25:31;8.35;;;6.30;;
8652;SDS011;4364;52.426;9.424;2023-09-08T10:28:01;8.77;;;6.25;;
8652;SDS011;4364;52.426;9.424;2023-09-08T10:30:30;7.70;;;5.97;;
8652;SDS011;4364;52.426;9.424;2023-09-08T10:32:58;6.35;;;5.70;;
8652;SDS011;4364;52.426;9.424;2023-09-08T10:35:26;8.57;;;5.95;;
8652;SDS011;4364;52.426;9.424;2023-09-08T10:38:20;6.57;;;5.97;;
8652;SDS011;4364;52.426;9.424;2023-09-08T10:40:52;6.40;;;5.80;;
8652;SDS011;4364;52.426;9.424;2023-09-08T10:43:19;6.50;;;5.32;;
8652;SDS011;4364;52.426;9.424;2023-09-08T10:45:46;6.53;;;5.32;;
8652;SDS011;4364;52.426;9.424;2023-09-08T10:48:14;6.07;;;5.47;;
8652;SDS011;4364;52.426;9.424;2023-09-08T10:50:42;7.38;;;5.18;;
8652;SDS011;4364;52.426;9.424;2023-09-08T10:53:15;7.95;;;5.20;;
8652;SDS011;4364;52.426;9.424;2023-09-08T10:55:47;7.18;;;5.45;;
8652;SDS011;4364;52.426;9.424;2023-09-08T10:58:37;8.77;;;4.95;;
8652;SDS011;4364;52.426;9.424;2023-09-08T11:01:15;5.93;;;5.20;;
8652;SDS011;4364;52.426;9.424;2023-09-08T11:03:44;5.47;;;4.97;;
8652;SDS011;4364;52.426;9.424;2023-09-08T11:06:15;6.30;;;5.20;;
8652;SDS011;4364;52.426;9.424;2023-09-08T11:08:45;5.32;;;4.82;;
8652;SDS011;4364;52.426;9.424;2023-09-08T11:11:13;8.93;;;5.80;;
8652;SDS011;4364;52.426;9.424;2023-09-08T11:13:40;5.40;;;4.90;;
8652;SDS011;4364;52.426;9.424;2023-09-08T11:16:07;6.75;;;5.40;;
8652;SDS011;4364;52.426;9.424;2023-09-08T11:18:34;7.10;;;5.53;;
8652;SDS011;4364;52.426;9.424;2023-09-08T11:21:03;6.85;;;5.70;;
8652;SDS011;4364;52.426;9.424;2023-09-08T11:23:34;5.90;;;5.20;;
8652;SDS011;4364;52.426;9.424;2023-09-08T11:26:01;9.02;;;5.18;;
8652;SDS011;4364;52.426;9.424;2023-09-08T11:28:28;5.93;;;5.30;;
8652;SDS011;4364;52.426;9.424;2023-09-08T11:30:55;6.40;;;5.05;;
8652;SDS011;4364;52.426;9.424;2023-09-08T11:33:23;7.18;;;5.35;;
8652;SDS011;4364;52.426;9.424;2023-09-08T11:35:53;6.57;;;5.88;;
8652;SDS011;4364;52.426;9.424;2023-09-08T11:38:25;6.28;;;5.28;;
8652;SDS011;4364;52.426;9.424;2023-09-08T11:40:53;6.53;;;5.30;;
8652;SDS011;4364;52.426;9.424;2023-09-08T11:43:21;5.78;;;4.88;;
8652;SDS011;4364;52.426;9.424;2023-09-08T11:45:47;6.25;;;4.75;;
8652;SDS011;4364;52.426;9.424;2023-09-08T11:48:15;5.43;;;4.72;;
8652;SDS011;4364;52.426;9.424;2023-09-08T11:50:42;6.53;;;5.07;;
8652;SDS011;4364;52.426;9.424;2023-09-08T11:53:11;5.68;;;4.70;;
8652;SDS011;4364;52.426;9.424;2023-09-08T11:55:37;5.05;;;4.55;;
8652;SDS011;4364;52.426;9.424;2023-09-08T11:58:04;6.70;;;4.90;;
8652;SDS011;4364;52.426;9.424;2023-09-08T12:00:31;5.13;;;4.07;;
8652;SDS011;4364;52.426;9.424;2023-09-08T12:03:11;5.15;;;4.45;;
8652;SDS011;4364;52.426;9.424;2023-09-08T12:05:39;6.55;;;4.60;;
8652;SDS011;4364;52.426;9.424;2023-09-08T12:08:07;4.80;;;4.30;;
8652;SDS011;4364;52.426;9.424;2023-09-08T12:10:37;4.22;;;3.83;;
8652;SDS011;4364;52.426;9.424;2023-09-08T12:13:05;6.20;;;4.43;;
8652;SDS011;4364;52.426;9.424;2023-09-08T12:15:33;5.88;;;4.10;;
8652;SDS011;4364;52.426;9.424;2023-09-08T12:18:05;4.70;;;4.20;;
8652;SDS011;4364;52.426;9.424;2023-09-08T12:20:39;5.32;;;4.07;;
8652;SDS011;4364;52.426;9.424;2023-09-08T12:23:16;4.53;;;4.13;;
8652;SDS011;4364;52.426;9.424;2023-09-08T12:25:48;6.13;;;4.47;;
8652;SDS011;4364;52.426;9.424;2023-09-08T12:28:17;5.85;;;4.40;;
8652;SDS011;4364;52.426;9.424;2023-09-08T12:30:44;6.10;;;4.35;;
8652;SDS011;4364;52.426;9.424;2023-09-08T12:33:11;4.72;;;3.70;;
8652;SDS011;4364;52.426;9.424;2023-09-08T12:35:44;4.80;;;4.28;;
8652;SDS011;4364;52.426;9.424;2023-09-08T12:38:12;4.50;;;4.10;;
8652;SDS011;4364;52.426;9.424;2023-09-08T12:40:39;4.72;;;4.32;;
8652;SDS011;4364;52.426;9.424;2023-09-08T12:43:07;5.93;;;3.65;;
8652;SDS011;4364;52.426;9.424;2023-09-08T12:45:52;4.88;;;3.72;;
8652;SDS011;4364;52.426;9.424;2023-09-08T12:48:19;5.28;;;3.88;;
8652;SDS011;4364;52.426;9.424;2023-09-08T12:50:46;4.03;;;3.53;;
8652;SDS011;4364;52.426;9.424;2023-09-08T12:53:14;4.10;;;3.70;;
8652;SDS011;4364;52.426;9.424;2023-09-08T12:55:43;4.00;;;3.60;;
8652;SDS011;4364;52.426;9.424;2023-09-08T12:58:09;4.70;;;3.72;;
8652;SDS011;4364;52.426;9.424;2023-09-08T13:00:36;4.63;;;3.80;;
8652;SDS011;4364;52.426;9.424;2023-09-08T13:03:02;5.78;;;4.30;;
8652;SDS011;4364;52.426;9.424;2023-09-08T13:05:29;5.60;;;4.00;;
8652;SDS011;4364;52.426;9.424;2023-09-08T13:07:58;4.63;;;3.75;;
8652;SDS011;4364;52.426;9.424;2023-09-08T13:10:24;4.28;;;3.88;;
8652;SDS011;4364;52.426;9.424;2023-09-08T13:12:51;4.03;;;3.63;;
8652;SDS011;4364;52.426;9.424;2023-09-08T13:15:18;5.43;;;3.95;;
8652;SDS011;4364;52.426;9.424;2023-09-08T13:17:44;4.10;;;3.72;;
8652;SDS011;4364;52.426;9.424;2023-09-08T13:20:11;5.07;;;3.95;;
8652;SDS011;4364;52.426;9.424;2023-09-08T13:22:38;4.63;;;3.63;;
8652;SDS011;4364;52.426;9.424;2023-09-08T13:25:05;4.72;;;3.67;;
8652;SDS011;4364;52.426;9.424;2023-09-08T13:27:32;4.38;;;3.63;;
8652;SDS011;4364;52.426;9.424;2023-09-08T13:30:11;3.58;;;3.28;;
8652;SDS011;4364;52.426;9.424;2023-09-08T13:32:40;6.57;;;4.15;;
8652;SDS011;4364;52.426;9.424;2023-09-08T13:35:07;5.30;;;3.80;;
8652;SDS011;4364;52.426;9.424;2023-09-08T13:37:34;3.80;;;3.50;;
8652;SDS011;4364;52.426;9.424;2023-09-08T13:40:01;4.88;;;3.45;;
8652;SDS011;4364;52.426;9.424;2023-09-08T13:42:30;4.00;;;3.60;;
8652;SDS011;4364;52.426;9.424;2023-09-08T13:44:57;4.85;;;3.78;;
8652;SDS011;4364;52.426;9.424;2023-09-08T13:47:24;4.22;;;3.78;;
8652;SDS011;4364;52.426;9.424;2023-09-08T13:49:51;5.30;;;3.85;;
8652;SDS011;4364;52.426;9.424;2023-09-08T13:52:20;4.15;;;3.78;;
8652;SDS011;4364;52.426;9.424;2023-09-08T13:54:48;4.00;;;3.60;;
8652;SDS011;4364;52.426;9.424;2023-09-08T13:57:17;6.20;;;4.03;;
8652;SDS011;4364;52.426;9.424;2023-09-08T13:59:47;5.93;;;3.83;;
8652;SDS011;4364;52.426;9.424;2023-09-08T14:02:15;4.20;;;3.80;;
8652;SDS011;4364;52.426;9.424;2023-09-08T14:05:02;4.07;;;3.67;;
8652;SDS011;4364;52.426;9.424;2023-09-08T14:07:35;4.00;;;3.70;;
8652;SDS011;4364;52.426;9.424;2023-09-08T14:10:11;4.00;;;3.60;;
8652;SDS011;4364;52.426;9.424;2023-09-08T14:12:40;4.00;;;3.60;;
8652;SDS011;4364;52.426;9.424;2023-09-08T14:15:07;8.20;;;3.67;;
8652;SDS011;4364;52.426;9.424;2023-09-08T14:17:34;3.50;;;3.20;;
8652;SDS011;4364;52.426;9.424;2023-09-08T14:20:00;3.72;;;3.40;;
8652;SDS011;4364;52.426;9.424;2023-09-08T14:22:27;5.55;;;3.90;;
8652;SDS011;4364;52.426;9.424;2023-09-08T14:24:53;4.47;;;3.63;;
8652;SDS011;4364;52.426;9.424;2023-09-08T14:27:20;4.55;;;3.65;;
8652;SDS011;4364;52.426;9.424;2023-09-08T14:29:46;6.18;;;3.80;;
8652;SDS011;4364;52.426;9.424;2023-09-08T14:32:13;4.07;;;3.72;;
8652;SDS011;4364;52.426;9.424;2023-09-08T14:34:39;4.43;;;3.78;;
8652;SDS011;4364;52.426;9.424;2023-09-08T14:37:06;3.97;;;3.38;;
8652;SDS011;4364;52.426;9.424;2023-09-08T14:39:36;5.60;;;3.75;;
8652;SDS011;4364;52.426;9.424;2023-09-08T14:42:03;4.07;;;3.72;;
8652;SDS011;4364;52.426;9.424;2023-09-08T14:44:29;4.60;;;3.30;;
8652;SDS011;4364;52.426;9.424;2023-09-08T14:46:56;4.20;;;3.65;;
8652;SDS011;4364;52.426;9.424;2023-09-08T14:49:22;4.53;;;3.30;;
8652;SDS011;4364;52.426;9.424;2023-09-08T14:51:49;4.97;;;3.65;;
8652;SDS011;4364;52.426;9.424;2023-09-08T14:54:15;4.38;;;3.97;;
8652;SDS011;4364;52.426;9.424;2023-09-08T14:56:42;4.18;;;3.50;;
8652;SDS011;4364;52.426;9.424;2023-09-08T14:59:09;4.18;;;3.78;;
8652;SDS011;4364;52.426;9.424;2023-09-08T15:01:35;3.80;;;3.35;;
8652;SDS011;4364;52.426;9.424;2023-09-08T15:04:04;5.10;;;3.80;;
8652;SDS011;4364;52.426;9.424;2023-09-08T15:06:32;4.93;;;3.85;;
8652;SDS011;4364;52.426;9.424;2023-09-08T15:08:58;5.78;;;4.20;;
8652;SDS011;4364;52.426;9.424;2023-09-08T15:11:26;4.38;;;3.97;;
8652;SDS011;4364;52.426;9.424;2023-09-08T15:13:52;4.75;;;3.83;;
8652;SDS011;4364;52.426;9.424;2023-09-08T15:16:19;4.35;;;3.95;;
8652;SDS011;4364;52.426;9.424;2023-09-08T15:18:47;5.90;;;3.75;;